createdAt,value
2019-03-24T00:00:32.347Z,19.00
2019-03-24T00:03:03.754Z,19.00
2019-03-24T00:05:35.327Z,18.90
2019-03-24T00:08:06.315Z,18.90
2019-03-24T00:10:37.653Z,18.90
2019-03-24T00:13:09.362Z,18.80
2019-03-24T00:15:40.640Z,18.80
2019-03-24T00:18:11.983Z,18.80
2019-03-24T00:20:45.987Z,18.80
2019-03-24T00:23:17.727Z,18.70
2019-03-24T00:25:48.974Z,18.70
2019-03-24T00:28:20.866Z,18.70
2019-03-24T00:30:52.045Z,18.70
2019-03-24T00:33:23.456Z,18.60
2019-03-24T00:35:55.376Z,18.70
2019-03-24T00:38:26.927Z,18.60
2019-03-24T00:40:59.141Z,18.60
2019-03-24T00:43:30.660Z,18.60
2019-03-24T00:46:02.257Z,18.60
2019-03-24T00:48:33.715Z,18.50
2019-03-24T00:51:04.962Z,18.60
2019-03-24T00:53:36.260Z,18.50
2019-03-24T00:56:07.750Z,18.50
2019-03-24T00:58:38.931Z,18.50
2019-03-24T01:01:10.387Z,18.50
2019-03-24T01:03:41.701Z,18.50
2019-03-24T01:06:12.944Z,18.50
2019-03-24T01:08:44.120Z,18.40
2019-03-24T01:11:15.229Z,18.40
2019-03-24T01:13:46.498Z,18.40
2019-03-24T01:16:20.591Z,18.40
2019-03-24T01:18:52.489Z,18.40
2019-03-24T01:21:23.870Z,18.40
2019-03-24T01:23:55.963Z,18.40
2019-03-24T01:26:27.021Z,18.30
2019-03-24T01:28:58.476Z,18.30
2019-03-24T01:31:29.769Z,18.30
2019-03-24T01:34:01.023Z,18.30
2019-03-24T01:36:32.297Z,18.30
2019-03-24T01:39:03.728Z,18.20
2019-03-24T01:41:35.094Z,18.20
2019-03-24T01:44:06.538Z,18.20
2019-03-24T01:46:38.060Z,18.20
2019-03-24T01:49:09.371Z,18.20
2019-03-24T01:51:40.936Z,18.10
2019-03-24T01:54:12.241Z,18.20
2019-03-24T01:56:43.836Z,18.10
2019-03-24T01:59:15.013Z,18.10
2019-03-24T02:01:46.135Z,18.10
2019-03-24T02:04:17.456Z,18.10
2019-03-24T02:06:48.683Z,18.10
2019-03-24T02:09:20.182Z,18.10
2019-03-24T02:11:53.601Z,18.10
2019-03-24T02:14:24.876Z,18.00
2019-03-24T02:16:56.104Z,18.00
2019-03-24T02:19:27.585Z,18.00
2019-03-24T02:21:59.469Z,18.00
2019-03-24T02:24:30.683Z,17.90
2019-03-24T02:27:01.824Z,17.90
2019-03-24T02:29:32.966Z,17.90
2019-03-24T02:32:04.638Z,17.90
2019-03-24T02:34:36.082Z,17.90
2019-03-24T02:37:07.750Z,17.90
2019-03-24T02:39:38.976Z,17.90
2019-03-24T02:42:10.148Z,17.80
2019-03-24T02:44:42.393Z,17.80
2019-03-24T02:47:13.909Z,17.80
2019-03-24T02:49:45.204Z,17.80
2019-03-24T02:52:16.554Z,17.80
2019-03-24T02:54:47.684Z,17.80
2019-03-24T02:57:18.957Z,17.80
2019-03-24T02:59:50.376Z,17.80
2019-03-24T03:02:21.885Z,17.80
2019-03-24T03:04:53.358Z,17.80
2019-03-24T03:07:24.686Z,17.70
2019-03-24T03:09:55.917Z,17.70
2019-03-24T03:12:27.328Z,17.70
2019-03-24T03:14:58.489Z,17.70
2019-03-24T03:17:30.088Z,17.70
2019-03-24T03:20:01.277Z,17.70
2019-03-24T03:22:32.450Z,17.70
2019-03-24T03:25:03.750Z,17.70
2019-03-24T03:27:34.958Z,17.70
2019-03-24T03:30:07.762Z,17.70
2019-03-24T03:32:39.881Z,17.70
2019-03-24T03:35:12.243Z,17.70
2019-03-24T03:37:43.706Z,17.70
2019-03-24T03:40:15.054Z,17.70
2019-03-24T03:42:46.221Z,17.60
2019-03-24T03:45:26.119Z,17.70
2019-03-24T03:47:57.653Z,17.70
2019-03-24T03:50:28.874Z,17.60
2019-03-24T03:53:00.202Z,17.70
2019-03-24T03:55:31.686Z,17.60
2019-03-24T03:58:03.089Z,17.60
2019-03-24T04:00:35.689Z,17.60
2019-03-24T04:03:08.064Z,17.60
2019-03-24T04:05:39.427Z,17.60
2019-03-24T04:08:10.945Z,17.60
2019-03-24T04:10:42.030Z,17.60
2019-03-24T04:13:13.452Z,17.60
2019-03-24T04:15:45.837Z,17.60
2019-03-24T04:18:17.432Z,17.60
2019-03-24T04:20:48.979Z,17.60
2019-03-24T04:23:20.365Z,17.60
2019-03-24T04:25:51.983Z,17.60
2019-03-24T04:28:23.454Z,17.60
2019-03-24T04:30:54.505Z,17.60
2019-03-24T04:33:25.781Z,17.60
2019-03-24T04:35:58.847Z,17.60
2019-03-24T04:38:30.142Z,17.60
2019-03-24T04:41:01.410Z,17.60
2019-03-24T04:43:32.746Z,17.60
2019-03-24T04:46:03.944Z,17.60
2019-03-24T04:48:35.220Z,17.60
2019-03-24T04:51:06.401Z,17.60
2019-03-24T04:53:38.083Z,17.60
2019-03-24T04:56:10.234Z,17.60
2019-03-24T04:58:42.725Z,17.50
2019-03-24T05:01:14.057Z,17.50
2019-03-24T05:03:45.284Z,17.50
2019-03-24T05:06:17.417Z,17.50
2019-03-24T05:08:50.182Z,17.50
2019-03-24T05:11:21.908Z,17.50
2019-03-24T05:13:53.487Z,17.50
2019-03-24T05:16:24.679Z,17.50
2019-03-24T05:18:55.877Z,17.50
2019-03-24T05:21:26.943Z,17.50
2019-03-24T05:23:58.209Z,17.50
2019-03-24T05:26:29.686Z,17.50
2019-03-24T05:29:00.880Z,17.50
2019-03-24T05:31:32.478Z,17.50
2019-03-24T05:34:03.794Z,17.50
2019-03-24T05:36:35.309Z,17.50
2019-03-24T05:39:07.708Z,17.50
2019-03-24T05:41:39.539Z,17.50
2019-03-24T05:44:11.032Z,17.50
2019-03-24T05:46:42.444Z,17.50
2019-03-24T05:49:14.964Z,17.50
2019-03-24T05:51:46.271Z,17.50
2019-03-24T05:54:17.457Z,17.50
2019-03-24T05:56:49.012Z,17.50
2019-03-24T05:59:21.042Z,17.50
2019-03-24T06:01:52.530Z,17.60
2019-03-24T06:04:24.014Z,17.50
2019-03-24T06:06:55.125Z,17.60
2019-03-24T06:09:27.395Z,17.60
2019-03-24T06:11:58.617Z,17.60
2019-03-24T06:14:30.057Z,17.60
2019-03-24T06:17:01.552Z,17.60
2019-03-24T06:19:32.733Z,17.60
2019-03-24T06:22:04.003Z,17.60
2019-03-24T06:24:35.576Z,17.70
2019-03-24T06:27:07.098Z,17.70
2019-03-24T06:29:38.477Z,17.70
2019-03-24T06:32:09.747Z,17.70
2019-03-24T06:34:42.029Z,17.80
2019-03-24T06:37:13.476Z,17.80
2019-03-24T06:39:46.341Z,17.80
2019-03-24T06:42:17.626Z,17.90
2019-03-24T06:44:49.146Z,17.90
2019-03-24T06:47:20.248Z,18.00
2019-03-24T06:49:52.009Z,18.00
2019-03-24T06:52:23.467Z,18.10
2019-03-24T06:54:54.844Z,18.10
2019-03-24T06:57:25.976Z,18.10
2019-03-24T06:59:58.438Z,18.20
2019-03-24T07:02:29.856Z,18.20
2019-03-24T07:05:04.225Z,18.30
2019-03-24T07:07:35.797Z,18.40
2019-03-24T07:10:08.063Z,18.40
2019-03-24T07:12:40.371Z,18.40
2019-03-24T07:15:11.661Z,18.40
2019-03-24T07:17:43.192Z,18.50
2019-03-24T07:20:14.543Z,18.60
2019-03-24T07:22:46.260Z,18.60
2019-03-24T07:25:17.733Z,18.60
2019-03-24T07:27:50.016Z,18.70
2019-03-24T07:30:22.060Z,18.80
2019-03-24T07:32:54.393Z,18.80
2019-03-24T07:35:25.921Z,18.80
2019-03-24T07:37:58.390Z,18.80
2019-03-24T07:40:30.102Z,18.90
2019-03-24T07:43:01.749Z,19.00
2019-03-24T07:45:33.004Z,19.00
2019-03-24T07:48:04.874Z,19.10
2019-03-24T07:50:36.490Z,19.10
2019-03-24T07:53:07.636Z,19.10
2019-03-24T07:55:38.696Z,19.20
2019-03-24T07:58:09.851Z,19.20
2019-03-24T08:00:40.914Z,19.30
2019-03-24T08:03:11.961Z,19.30
2019-03-24T08:05:43.189Z,19.40
2019-03-24T08:08:14.298Z,19.40
2019-03-24T08:10:45.322Z,19.40
2019-03-24T08:13:16.348Z,19.50
2019-03-24T08:15:47.362Z,19.50
2019-03-24T08:18:25.725Z,19.60
2019-03-24T08:20:51.217Z,19.60
2019-03-24T08:23:22.358Z,19.70
2019-03-24T08:25:53.533Z,19.70
2019-03-24T08:28:24.686Z,19.80
2019-03-24T08:30:55.745Z,19.90
2019-03-24T08:33:26.751Z,19.90
2019-03-24T08:35:57.687Z,20.00
2019-03-24T08:38:28.783Z,20.00
2019-03-24T08:41:01.434Z,20.10
2019-03-24T08:43:35.372Z,20.20
2019-03-24T08:46:07.086Z,20.20
2019-03-24T08:48:41.045Z,20.30
2019-03-24T08:51:11.317Z,20.40
2019-03-24T08:53:42.551Z,20.40
2019-03-24T08:56:13.824Z,20.40
2019-03-24T08:58:45.194Z,20.50
2019-03-24T09:01:16.118Z,20.60
2019-03-24T09:03:47.417Z,20.70
2019-03-24T09:06:18.518Z,20.70
2019-03-24T09:08:49.877Z,20.80
2019-03-24T09:11:30.883Z,20.90
2019-03-24T09:13:53.997Z,21.00
2019-03-24T09:16:25.079Z,21.00
2019-03-24T09:18:56.265Z,21.20
2019-03-24T09:21:27.575Z,21.20
2019-03-24T09:23:58.880Z,21.30
2019-03-24T09:26:30.108Z,21.40
2019-03-24T09:29:01.359Z,21.50
2019-03-24T09:31:32.850Z,21.60
2019-03-24T09:34:03.965Z,21.70
2019-03-24T09:36:35.031Z,21.80
2019-03-24T09:39:07.773Z,21.90
2019-03-24T09:41:38.896Z,22.10
2019-03-24T09:44:09.980Z,22.20
2019-03-24T09:46:41.144Z,22.30
2019-03-24T09:49:12.182Z,22.40
2019-03-24T09:51:43.211Z,22.50
2019-03-24T09:54:14.319Z,22.60
2019-03-24T09:56:45.461Z,22.80
2019-03-24T09:59:16.580Z,22.90
2019-03-24T10:01:47.545Z,23.00
2019-03-24T10:04:18.537Z,23.20
2019-03-24T10:06:49.855Z,23.30
2019-03-24T10:09:20.987Z,23.50
2019-03-24T10:11:52.173Z,23.60
2019-03-24T10:14:23.221Z,23.70
2019-03-24T10:16:55.720Z,23.90
2019-03-24T10:19:27.170Z,24.10
2019-03-24T10:21:58.462Z,24.30
2019-03-24T10:24:31.734Z,24.40
2019-03-24T10:27:04.658Z,24.60
2019-03-24T10:29:35.887Z,24.70
2019-03-24T10:32:07.119Z,24.90
2019-03-24T10:34:38.164Z,25.20
2019-03-24T10:37:09.200Z,25.40
2019-03-24T10:39:40.298Z,25.60
2019-03-24T10:42:11.551Z,25.80
2019-03-24T10:44:43.146Z,26.00
2019-03-24T10:47:14.395Z,26.20
2019-03-24T10:49:45.772Z,26.40
2019-03-24T10:52:17.460Z,26.60
2019-03-24T10:54:48.813Z,26.70
2019-03-24T10:57:20.432Z,26.90
2019-03-24T10:59:51.730Z,27.10
2019-03-24T11:02:24.832Z,27.30
2019-03-24T11:04:55.949Z,27.40
2019-03-24T11:07:27.257Z,27.60
2019-03-24T11:09:58.681Z,27.70
2019-03-24T11:12:30.234Z,27.90
2019-03-24T11:15:01.597Z,28.00
2019-03-24T11:17:32.984Z,28.20
2019-03-24T11:20:04.837Z,28.40
2019-03-24T11:22:36.469Z,28.50
2019-03-24T11:25:09.330Z,28.70
2019-03-24T11:27:41.206Z,28.90
2019-03-24T11:30:14.377Z,29.00
2019-03-24T11:32:46.190Z,29.20
2019-03-24T11:35:17.846Z,29.30
2019-03-24T11:37:48.999Z,29.40
2019-03-24T11:40:20.949Z,29.60
2019-03-24T11:42:53.036Z,29.70
2019-03-24T11:45:24.712Z,29.80
2019-03-24T11:47:56.230Z,29.90
2019-03-24T11:50:27.728Z,29.90
2019-03-24T11:52:59.285Z,30.10
2019-03-24T11:55:30.707Z,30.10
2019-03-24T11:58:06.076Z,30.20
2019-03-24T12:00:39.480Z,30.20
2019-03-24T12:03:10.728Z,30.20
2019-03-24T12:05:42.395Z,30.30
2019-03-24T12:08:13.998Z,30.30
2019-03-24T12:10:45.240Z,30.30
2019-03-24T12:13:16.831Z,30.30
2019-03-24T12:15:47.972Z,30.40
2019-03-24T12:18:19.080Z,30.40
2019-03-24T12:20:50.633Z,30.40
2019-03-24T12:23:22.320Z,30.40
2019-03-24T12:25:53.854Z,30.50
2019-03-24T12:28:25.305Z,30.50
2019-03-24T12:30:56.528Z,30.50
2019-03-24T12:33:27.820Z,30.50
2019-03-24T12:35:59.074Z,30.50
2019-03-24T12:38:30.272Z,30.50
2019-03-24T12:41:01.720Z,30.50
2019-03-24T12:43:33.346Z,30.60
2019-03-24T12:46:04.790Z,30.50
2019-03-24T12:48:36.330Z,30.60
2019-03-24T12:51:07.886Z,30.60
2019-03-24T12:53:39.234Z,30.60
2019-03-24T12:56:10.305Z,30.60
2019-03-24T12:58:41.826Z,30.70
2019-03-24T13:01:13.021Z,30.70
2019-03-24T13:03:44.452Z,30.80
2019-03-24T13:06:15.824Z,30.80
2019-03-24T13:08:47.452Z,30.80
2019-03-24T13:11:18.835Z,30.80
2019-03-24T13:13:50.167Z,30.80
2019-03-24T13:16:21.956Z,30.80
2019-03-24T13:18:53.842Z,30.90
2019-03-24T13:21:25.814Z,30.90
2019-03-24T13:23:58.279Z,30.90
2019-03-24T13:26:30.843Z,30.80
2019-03-24T13:29:01.961Z,30.80
2019-03-24T13:31:33.437Z,30.80
2019-03-24T13:34:05.976Z,30.80
2019-03-24T13:36:37.348Z,30.70
2019-03-24T13:39:09.050Z,30.60
2019-03-24T13:41:40.225Z,30.50
2019-03-24T13:44:11.597Z,30.50
2019-03-24T13:46:42.747Z,30.40
2019-03-24T13:49:14.282Z,30.30
2019-03-24T13:51:45.800Z,30.10
2019-03-24T13:54:17.384Z,30.10
2019-03-24T13:56:48.652Z,30.00
2019-03-24T13:59:20.240Z,29.90
2019-03-24T14:01:51.591Z,29.70
2019-03-24T14:04:24.215Z,29.60
2019-03-24T14:06:55.614Z,29.60
2019-03-24T14:09:27.108Z,29.50
2019-03-24T14:11:59.319Z,29.30
2019-03-24T14:14:30.823Z,29.30
2019-03-24T14:17:02.672Z,29.10
2019-03-24T14:19:34.120Z,29.00
2019-03-24T14:22:06.471Z,28.90
2019-03-24T14:24:37.931Z,28.70
2019-03-24T14:27:09.308Z,28.60
2019-03-24T14:29:42.026Z,28.40
2019-03-24T14:32:13.465Z,28.30
2019-03-24T14:34:44.994Z,28.20
2019-03-24T14:37:16.520Z,28.10
2019-03-24T14:39:48.051Z,28.00
2019-03-24T14:42:19.484Z,27.90
2019-03-24T14:44:51.290Z,27.80
2019-03-24T14:47:22.649Z,27.70
2019-03-24T14:49:54.156Z,27.60
2019-03-24T14:52:25.717Z,27.50
2019-03-24T14:54:57.151Z,27.40
2019-03-24T14:57:28.421Z,27.30
2019-03-24T15:00:01.334Z,27.20
2019-03-24T15:02:32.887Z,27.10
2019-03-24T15:05:04.781Z,27.10
2019-03-24T15:07:36.515Z,27.00
2019-03-24T15:10:08.036Z,26.90
2019-03-24T15:12:39.811Z,26.80
2019-03-24T15:15:11.167Z,26.80
2019-03-24T15:17:42.483Z,26.70
2019-03-24T15:20:14.716Z,26.70
2019-03-24T15:22:47.381Z,26.60
2019-03-24T15:25:19.185Z,26.60
2019-03-24T15:27:51.297Z,26.50
2019-03-24T15:30:24.271Z,26.40
2019-03-24T15:32:56.663Z,26.40
2019-03-24T15:35:28.018Z,26.30
2019-03-24T15:38:08.039Z,26.30
2019-03-24T15:40:32.460Z,26.30
2019-03-24T15:43:03.771Z,26.20
2019-03-24T15:45:35.030Z,26.20
2019-03-24T15:48:06.323Z,26.20
2019-03-24T15:50:37.705Z,26.10
2019-03-24T15:53:09.045Z,26.10
2019-03-24T15:55:40.384Z,26.00
2019-03-24T15:58:11.990Z,26.00
2019-03-24T16:00:47.682Z,25.90
2019-03-24T16:03:19.451Z,25.90
2019-03-24T16:05:51.002Z,25.90
2019-03-24T16:08:23.299Z,25.80
2019-03-24T16:10:54.624Z,25.80
2019-03-24T16:13:28.468Z,25.80
2019-03-24T16:16:00.186Z,25.80
2019-03-24T16:18:32.272Z,25.70
2019-03-24T16:21:03.606Z,25.70
2019-03-24T16:23:34.859Z,25.70
2019-03-24T16:26:06.252Z,25.60
2019-03-24T16:28:37.694Z,25.60
2019-03-24T16:31:09.773Z,25.60
2019-03-24T16:33:41.191Z,25.50
2019-03-24T16:36:12.611Z,25.50
2019-03-24T16:38:48.776Z,25.50
2019-03-24T16:41:17.090Z,25.40
2019-03-24T16:43:48.402Z,25.40
2019-03-24T16:46:19.638Z,25.40
2019-03-24T16:48:51.141Z,25.40
2019-03-24T16:51:22.454Z,25.30
2019-03-24T16:53:54.592Z,25.30
2019-03-24T16:56:27.741Z,25.30
2019-03-24T16:58:59.394Z,25.20
2019-03-24T17:01:31.017Z,25.20
2019-03-24T17:04:02.264Z,25.20
2019-03-24T17:06:33.414Z,25.10
2019-03-24T17:09:06.280Z,25.10
2019-03-24T17:11:38.033Z,25.10
2019-03-24T17:14:09.222Z,25.10
2019-03-24T17:16:40.861Z,25.00
2019-03-24T17:19:12.092Z,25.00
2019-03-24T17:21:50.005Z,25.00
2019-03-24T17:24:18.026Z,25.00
2019-03-24T17:26:49.266Z,24.90
2019-03-24T17:29:20.940Z,24.90
2019-03-24T17:31:52.373Z,24.90
2019-03-24T17:34:24.542Z,24.90
2019-03-24T17:36:56.286Z,24.80
2019-03-24T17:39:27.848Z,24.80
2019-03-24T17:41:59.965Z,24.80
2019-03-24T17:44:31.367Z,24.80
2019-03-24T17:47:02.834Z,24.70
2019-03-24T17:49:34.283Z,24.60
2019-03-24T17:52:05.858Z,24.60
2019-03-24T17:54:37.453Z,24.60
2019-03-24T17:57:08.827Z,24.60
2019-03-24T17:59:40.297Z,24.50
2019-03-24T18:02:14.629Z,24.50
2019-03-24T18:04:44.838Z,24.50
2019-03-24T18:07:16.249Z,24.40
2019-03-24T18:09:47.869Z,24.40
2019-03-24T18:12:19.209Z,24.40
2019-03-24T18:14:50.910Z,24.40
2019-03-24T18:17:22.506Z,24.30
2019-03-24T18:19:54.191Z,24.30
2019-03-24T18:22:25.708Z,24.20
2019-03-24T18:25:00.582Z,24.20
2019-03-24T18:27:32.296Z,24.20
2019-03-24T18:30:04.196Z,24.10
2019-03-24T18:32:35.577Z,24.10
2019-03-24T18:35:08.002Z,24.10
2019-03-24T18:37:39.532Z,24.00
2019-03-24T18:40:11.988Z,24.00
2019-03-24T18:42:44.696Z,24.00
2019-03-24T18:45:17.744Z,23.90
2019-03-24T18:47:50.199Z,23.90
2019-03-24T18:50:21.943Z,23.80
2019-03-24T18:52:53.483Z,23.80
2019-03-24T18:55:25.215Z,23.80
2019-03-24T18:57:56.823Z,23.80
2019-03-24T19:00:28.083Z,23.70
2019-03-24T19:02:59.682Z,23.70
2019-03-24T19:05:31.424Z,23.70
2019-03-24T19:08:02.846Z,23.60
2019-03-24T19:10:34.466Z,23.60
2019-03-24T19:13:06.023Z,23.60
2019-03-24T19:15:37.626Z,23.60
2019-03-24T19:18:09.165Z,23.50
2019-03-24T19:20:40.560Z,23.50
2019-03-24T19:23:11.747Z,23.50
2019-03-24T19:25:43.413Z,23.50
2019-03-24T19:28:15.013Z,23.40
2019-03-24T19:30:46.540Z,23.40
2019-03-24T19:33:19.306Z,23.40
2019-03-24T19:35:50.997Z,23.40
2019-03-24T19:38:23.742Z,23.40
2019-03-24T19:40:55.181Z,23.30
2019-03-24T19:43:26.601Z,23.30
2019-03-24T19:45:58.049Z,23.20
2019-03-24T19:48:29.809Z,23.20
2019-03-24T19:51:01.340Z,23.20
2019-03-24T19:53:33.135Z,23.20
2019-03-24T19:56:05.185Z,23.10
2019-03-24T19:58:36.981Z,23.10
2019-03-24T20:01:08.488Z,23.10
2019-03-24T20:03:40.084Z,23.00
2019-03-24T20:06:11.628Z,23.00
2019-03-24T20:08:42.949Z,23.00
2019-03-24T20:11:14.603Z,23.00
2019-03-24T20:13:46.402Z,23.00
2019-03-24T20:16:17.843Z,23.00
2019-03-24T20:18:49.118Z,23.10
2019-03-24T20:21:21.678Z,23.30
2019-03-24T20:23:53.393Z,23.40
2019-03-24T20:26:25.942Z,23.60
2019-03-24T20:28:57.368Z,23.80
2019-03-24T20:31:28.679Z,24.00
2019-03-24T20:34:00.030Z,24.10
2019-03-24T20:36:31.446Z,24.20
2019-03-24T20:39:02.981Z,24.20
2019-03-24T20:41:35.844Z,24.30
2019-03-24T20:44:07.335Z,24.30
2019-03-24T20:46:38.556Z,24.30
2019-03-24T20:49:10.674Z,24.20
2019-03-24T20:51:42.175Z,24.10
2019-03-24T20:54:14.409Z,24.00
2019-03-24T20:56:45.781Z,23.90
2019-03-24T20:59:17.445Z,23.80
2019-03-24T21:01:48.761Z,23.70
2019-03-24T21:04:20.423Z,23.70
2019-03-24T21:06:52.743Z,23.50
2019-03-24T21:09:24.202Z,23.50
2019-03-24T21:11:55.749Z,23.40
2019-03-24T21:14:27.036Z,23.40
2019-03-24T21:16:58.457Z,23.30
2019-03-24T21:19:30.077Z,23.20
2019-03-24T21:22:01.802Z,23.10
2019-03-24T21:24:33.202Z,23.10
2019-03-24T21:27:07.055Z,23.00
2019-03-24T21:29:37.829Z,22.90
2019-03-24T21:32:09.308Z,22.80
2019-03-24T21:34:40.577Z,22.70
2019-03-24T21:37:11.984Z,22.60
2019-03-24T21:39:43.742Z,22.60
2019-03-24T21:42:15.113Z,22.50
2019-03-24T21:44:46.540Z,22.40
2019-03-24T21:47:17.825Z,22.40
2019-03-24T21:49:49.401Z,22.40
2019-03-24T21:52:20.896Z,22.30
2019-03-24T21:54:52.261Z,22.20
2019-03-24T21:57:23.931Z,22.20
2019-03-24T21:59:55.259Z,22.10
2019-03-24T22:02:26.761Z,22.10
2019-03-24T22:04:59.492Z,22.00
2019-03-24T22:07:31.114Z,22.00
2019-03-24T22:10:04.518Z,22.00
2019-03-24T22:12:35.848Z,21.90
2019-03-24T22:15:08.732Z,21.90
2019-03-24T22:17:40.270Z,21.80
2019-03-24T22:20:12.001Z,21.80
2019-03-24T22:22:43.550Z,21.80
2019-03-24T22:25:14.936Z,21.70
2019-03-24T22:27:46.456Z,21.70
2019-03-24T22:30:18.488Z,21.70
2019-03-24T22:32:49.784Z,21.60
2019-03-24T22:35:21.191Z,21.60
2019-03-24T22:37:52.586Z,21.50
2019-03-24T22:40:23.912Z,21.50
2019-03-24T22:42:55.784Z,21.40
2019-03-24T22:45:27.195Z,21.40
2019-03-24T22:47:58.589Z,21.30
2019-03-24T22:50:29.707Z,21.30
2019-03-24T22:53:01.409Z,21.30
2019-03-24T22:55:32.782Z,21.20
2019-03-24T22:58:05.705Z,21.20
2019-03-24T23:00:45.141Z,21.20
2019-03-24T23:03:17.098Z,21.10
2019-03-24T23:05:49.252Z,21.10
2019-03-24T23:08:21.136Z,21.10
2019-03-24T23:10:52.925Z,21.00
2019-03-24T23:13:24.388Z,21.00
2019-03-24T23:15:55.851Z,21.00
2019-03-24T23:18:27.699Z,21.00
2019-03-24T23:20:59.273Z,21.00
2019-03-24T23:23:31.371Z,20.90
2019-03-24T23:26:02.813Z,20.90
2019-03-24T23:28:34.225Z,20.80
2019-03-24T23:31:05.634Z,20.80
2019-03-24T23:33:37.107Z,20.80
2019-03-24T23:36:08.613Z,20.70
2019-03-24T23:38:39.968Z,20.80
2019-03-24T23:41:11.488Z,20.70
2019-03-24T23:43:42.847Z,20.70
2019-03-24T23:46:13.979Z,20.70
2019-03-24T23:48:45.251Z,20.60
2019-03-24T23:51:17.082Z,20.60
2019-03-24T23:53:49.965Z,20.60
2019-03-24T23:56:21.492Z,20.60
2019-03-24T23:58:53.002Z,20.60
